createdAt,value
2022-11-07T00:00:02.317Z,10.10
2022-11-07T00:02:04.750Z,10.10
2022-11-07T00:04:06.448Z,10.10
2022-11-07T00:06:08.325Z,10.10
2022-11-07T00:08:09.955Z,10.00
2022-11-07T00:10:11.602Z,10.00
2022-11-07T00:12:13.226Z,10.00
2022-11-07T00:14:15.705Z,10.00
2022-11-07T00:16:17.380Z,9.90
2022-11-07T00:18:19.027Z,9.90
2022-11-07T00:20:20.659Z,9.90
2022-11-07T00:22:22.286Z,9.90
2022-11-07T00:24:23.914Z,9.90
2022-11-07T00:26:25.552Z,9.80
2022-11-07T00:28:27.313Z,9.80
2022-11-07T00:30:28.943Z,9.70
2022-11-07T00:32:30.566Z,9.70
2022-11-07T00:34:32.843Z,9.60
2022-11-07T00:36:34.667Z,9.60
2022-11-07T00:38:36.522Z,9.50
2022-11-07T00:40:38.131Z,9.50
2022-11-07T00:42:39.753Z,9.50
2022-11-07T00:44:41.430Z,9.40
2022-11-07T00:46:43.067Z,9.40
2022-11-07T00:48:44.760Z,9.40
2022-11-07T00:50:46.617Z,9.30
2022-11-07T00:52:48.210Z,9.30
2022-11-07T00:54:49.801Z,9.30
2022-11-07T00:56:51.457Z,9.30
2022-11-07T00:58:54.207Z,9.20
2022-11-07T01:00:56.012Z,9.30
2022-11-07T01:03:16.718Z,9.20
2022-11-07T01:05:18.651Z,9.20
2022-11-07T01:07:20.265Z,9.20
2022-11-07T01:09:21.913Z,9.20
2022-11-07T01:11:24.574Z,9.30
2022-11-07T01:13:26.473Z,9.30
2022-11-07T01:15:28.159Z,9.40
2022-11-07T01:17:29.831Z,9.50
2022-11-07T01:19:31.495Z,9.60
2022-11-07T01:21:33.213Z,9.80
2022-11-07T01:23:35.143Z,9.90
2022-11-07T01:25:39.622Z,10.00
2022-11-07T01:27:41.308Z,10.10
2022-11-07T01:29:42.910Z,10.20
2022-11-07T01:31:44.901Z,10.20
2022-11-07T01:33:46.670Z,10.20
2022-11-07T01:35:48.323Z,10.20
2022-11-07T01:37:49.928Z,10.30
2022-11-07T01:39:51.559Z,10.30
2022-11-07T01:41:53.195Z,10.30
2022-11-07T01:43:57.393Z,10.30
2022-11-07T01:45:59.047Z,10.30
2022-11-07T01:48:01.836Z,10.30
2022-11-07T01:50:05.615Z,10.30
2022-11-07T01:52:09.881Z,10.30
2022-11-07T01:54:13.233Z,10.20
2022-11-07T01:56:16.269Z,10.20
2022-11-07T01:58:17.951Z,10.20
2022-11-07T02:00:20.541Z,10.10
2022-11-07T02:02:23.983Z,10.00
2022-11-07T02:04:27.490Z,10.00
2022-11-07T02:07:01.384Z,9.90
2022-11-07T02:09:03.394Z,9.90
2022-11-07T02:11:06.026Z,9.90
2022-11-07T02:13:07.953Z,9.90
2022-11-07T02:15:10.086Z,9.80
2022-11-07T02:17:12.618Z,9.80
2022-11-07T02:19:25.857Z,9.80
2022-11-07T02:21:31.937Z,9.80
2022-11-07T02:23:40.100Z,9.80
2022-11-07T02:25:41.791Z,9.80
2022-11-07T02:27:43.787Z,9.70
2022-11-07T02:29:48.110Z,9.70
2022-11-07T02:32:00.317Z,9.80
2022-11-07T02:34:01.933Z,9.80
2022-11-07T02:36:03.694Z,9.70
2022-11-07T02:38:20.658Z,9.70
2022-11-07T02:40:22.593Z,9.70
2022-11-07T02:42:24.744Z,9.70
2022-11-07T02:44:26.723Z,9.70
2022-11-07T02:46:29.386Z,9.70
2022-11-07T02:48:32.148Z,9.70
2022-11-07T02:50:33.754Z,9.70
2022-11-07T02:52:35.740Z,9.60
2022-11-07T02:54:37.359Z,9.60
2022-11-07T02:56:39.117Z,9.60
2022-11-07T02:58:40.853Z,9.60
2022-11-07T03:00:42.509Z,9.60
2022-11-07T03:02:47.598Z,9.60
2022-11-07T03:04:49.389Z,9.60
2022-11-07T03:06:51.546Z,9.60
2022-11-07T03:08:53.217Z,9.50
2022-11-07T03:10:54.881Z,9.60
2022-11-07T03:12:56.571Z,9.60
2022-11-07T03:14:58.261Z,9.60
2022-11-07T03:16:59.963Z,9.60
2022-11-07T03:19:01.588Z,9.70
2022-11-07T03:21:03.901Z,9.70
2022-11-07T03:23:05.737Z,9.70
2022-11-07T03:25:08.292Z,9.70
2022-11-07T03:27:09.894Z,9.70
2022-11-07T03:29:11.565Z,9.60
2022-11-07T03:31:13.243Z,9.60
2022-11-07T03:33:15.183Z,9.70
2022-11-07T03:35:17.103Z,9.70
2022-11-07T03:37:18.777Z,9.60
2022-11-07T03:39:25.506Z,9.70
2022-11-07T03:41:27.563Z,9.70
2022-11-07T03:43:29.184Z,9.70
2022-11-07T03:45:30.822Z,9.70
2022-11-07T03:47:36.009Z,9.60
2022-11-07T03:49:37.666Z,9.70
2022-11-07T03:51:39.304Z,9.70
2022-11-07T03:53:40.937Z,9.60
2022-11-07T03:55:42.619Z,9.70
2022-11-07T03:57:44.707Z,9.60
2022-11-07T03:59:46.362Z,9.60
2022-11-07T04:01:48.163Z,9.60
2022-11-07T04:03:52.746Z,9.50
2022-11-07T04:05:58.023Z,9.50
2022-11-07T04:07:59.662Z,9.50
2022-11-07T04:10:01.287Z,9.40
2022-11-07T04:12:21.630Z,9.40
2022-11-07T04:14:42.028Z,9.30
2022-11-07T04:17:02.319Z,9.30
2022-11-07T04:19:03.981Z,9.20
2022-11-07T04:21:05.677Z,9.20
2022-11-07T04:23:07.329Z,9.10
2022-11-07T04:25:09.290Z,9.10
2022-11-07T04:27:30.090Z,9.10
2022-11-07T04:29:31.716Z,9.00
2022-11-07T04:31:33.369Z,9.00
2022-11-07T04:33:34.978Z,8.90
2022-11-07T04:35:36.627Z,8.90
2022-11-07T04:37:38.264Z,8.90
2022-11-07T04:39:39.908Z,8.80
2022-11-07T04:41:41.602Z,8.80
2022-11-07T04:43:43.295Z,8.70
2022-11-07T04:45:44.878Z,8.70
2022-11-07T04:47:46.539Z,8.70
2022-11-07T04:49:48.138Z,8.70
2022-11-07T04:51:49.791Z,8.70
2022-11-07T04:53:51.496Z,8.60
2022-11-07T04:55:53.107Z,8.60
2022-11-07T04:57:54.761Z,8.50
2022-11-07T04:59:56.385Z,8.50
2022-11-07T05:01:58.085Z,8.50
2022-11-07T05:03:59.994Z,8.50
2022-11-07T05:06:03.808Z,8.50
2022-11-07T05:08:05.739Z,8.40
2022-11-07T05:10:12.030Z,8.40
2022-11-07T05:12:14.138Z,8.30
2022-11-07T05:14:15.884Z,8.30
2022-11-07T05:16:17.532Z,8.30
2022-11-07T05:18:21.119Z,8.30
2022-11-07T05:20:30.095Z,8.20
2022-11-07T05:22:56.040Z,8.20
2022-11-07T05:24:58.025Z,8.20
2022-11-07T05:26:59.958Z,8.10
2022-11-07T05:29:01.762Z,8.10
2022-11-07T05:31:04.374Z,8.10
2022-11-07T05:33:05.970Z,8.00
2022-11-07T05:35:07.733Z,8.00
2022-11-07T05:37:10.199Z,7.90
2022-11-07T05:39:11.816Z,7.90
2022-11-07T05:41:13.997Z,7.90
2022-11-07T05:43:16.069Z,7.80
2022-11-07T05:45:17.990Z,7.80
2022-11-07T05:47:19.642Z,7.80
2022-11-07T05:49:21.279Z,7.70
2022-11-07T05:51:23.185Z,7.70
2022-11-07T05:53:25.541Z,7.70
2022-11-07T05:55:27.297Z,7.70
2022-11-07T05:57:29.391Z,7.70
2022-11-07T05:59:31.012Z,7.70
2022-11-07T06:01:32.869Z,7.70
2022-11-07T06:03:34.628Z,7.60
2022-11-07T06:05:40.282Z,7.60
2022-11-07T06:07:42.081Z,7.60
2022-11-07T06:09:44.119Z,7.70
2022-11-07T06:11:46.094Z,7.60
2022-11-07T06:13:47.784Z,7.60
2022-11-07T06:15:49.511Z,7.70
2022-11-07T06:17:51.215Z,7.70
2022-11-07T06:19:52.876Z,7.60
2022-11-07T06:21:54.534Z,7.60
2022-11-07T06:23:56.226Z,7.60
2022-11-07T06:25:57.881Z,7.70
2022-11-07T06:28:00.215Z,7.60
2022-11-07T06:30:01.891Z,7.60
2022-11-07T06:32:03.535Z,7.70
2022-11-07T06:34:05.203Z,7.70
2022-11-07T06:36:14.404Z,7.70
2022-11-07T06:38:16.064Z,7.80
2022-11-07T06:40:17.838Z,7.80
2022-11-07T06:42:19.664Z,7.90
2022-11-07T06:44:21.468Z,7.90
2022-11-07T06:46:23.327Z,7.90
2022-11-07T06:48:24.933Z,8.00
2022-11-07T06:50:26.674Z,8.00
2022-11-07T06:52:28.902Z,8.00
2022-11-07T06:54:30.603Z,8.00
2022-11-07T06:56:32.396Z,8.00
2022-11-07T06:58:34.609Z,8.00
2022-11-07T07:00:37.009Z,8.00
2022-11-07T07:02:57.265Z,8.10
2022-11-07T07:05:00.209Z,8.10
2022-11-07T07:07:01.889Z,8.20
2022-11-07T07:09:03.903Z,8.20
2022-11-07T07:11:07.279Z,8.10
2022-11-07T07:13:09.252Z,8.20
2022-11-07T07:15:10.919Z,8.30
2022-11-07T07:17:12.679Z,8.30
2022-11-07T07:19:14.367Z,8.40
2022-11-07T07:21:16.213Z,8.40
2022-11-07T07:23:18.851Z,8.50
2022-11-07T07:25:20.952Z,8.50
2022-11-07T07:27:22.747Z,8.60
2022-11-07T07:29:24.408Z,8.60
2022-11-07T07:31:30.698Z,8.70
2022-11-07T07:33:33.777Z,8.70
2022-11-07T07:35:38.143Z,8.80
2022-11-07T07:37:40.008Z,8.80
2022-11-07T07:39:41.983Z,8.90
2022-11-07T07:41:43.940Z,9.00
2022-11-07T07:43:45.902Z,9.00
2022-11-07T07:45:47.758Z,9.10
2022-11-07T07:47:49.725Z,9.10
2022-11-07T07:49:51.373Z,9.20
2022-11-07T07:51:52.989Z,9.30
2022-11-07T07:53:54.759Z,9.40
2022-11-07T07:56:00.393Z,9.40
2022-11-07T07:58:02.166Z,9.50
2022-11-07T08:00:04.327Z,9.60
2022-11-07T08:02:08.276Z,9.70
2022-11-07T08:04:10.097Z,9.70
2022-11-07T08:06:11.830Z,9.80
2022-11-07T08:08:13.448Z,9.90
2022-11-07T08:10:40.161Z,10.00
2022-11-07T08:12:37.299Z,10.00
2022-11-07T08:14:39.288Z,10.20
2022-11-07T08:16:40.927Z,10.30
2022-11-07T08:18:42.591Z,10.40
2022-11-07T08:20:44.278Z,10.40
2022-11-07T08:22:45.906Z,10.50
2022-11-07T08:24:47.512Z,10.60
2022-11-07T08:26:49.128Z,10.70
2022-11-07T08:28:53.425Z,10.80
2022-11-07T08:30:59.333Z,10.90
2022-11-07T08:33:01.873Z,11.00
2022-11-07T08:35:03.585Z,11.10
2022-11-07T08:37:05.247Z,11.20
2022-11-07T08:39:06.850Z,11.30
2022-11-07T08:41:08.510Z,11.30
2022-11-07T08:43:10.232Z,11.40
2022-11-07T08:45:11.855Z,11.50
2022-11-07T08:47:13.474Z,11.60
2022-11-07T08:49:15.226Z,11.60
2022-11-07T08:51:16.857Z,11.70
2022-11-07T08:53:19.861Z,11.80
2022-11-07T08:55:21.801Z,11.80
2022-11-07T08:57:23.500Z,11.90
2022-11-07T08:59:25.137Z,11.90
2022-11-07T09:01:26.929Z,12.00
2022-11-07T09:03:47.266Z,12.10
2022-11-07T09:05:50.729Z,12.10
2022-11-07T09:07:52.372Z,12.20
2022-11-07T09:09:53.994Z,12.30
2022-11-07T09:11:55.653Z,12.30
2022-11-07T09:13:57.647Z,12.40
2022-11-07T09:16:00.062Z,12.40
2022-11-07T09:18:02.775Z,12.50
2022-11-07T09:20:04.640Z,12.50
2022-11-07T09:22:06.219Z,12.60
2022-11-07T09:24:08.257Z,12.60
2022-11-07T09:26:10.024Z,12.70
2022-11-07T09:28:11.713Z,12.80
2022-11-07T09:30:13.672Z,12.80
2022-11-07T09:32:42.856Z,12.80
2022-11-07T09:34:36.886Z,12.90
2022-11-07T09:36:38.521Z,13.00
2022-11-07T09:38:40.128Z,13.00
2022-11-07T09:40:44.861Z,13.10
2022-11-07T09:43:00.229Z,13.10
2022-11-07T09:45:02.200Z,13.20
2022-11-07T09:47:08.159Z,13.20
2022-11-07T09:49:26.589Z,13.30
2022-11-07T09:51:36.235Z,13.30
2022-11-07T09:53:42.218Z,13.40
2022-11-07T09:55:56.119Z,13.50
2022-11-07T09:58:00.162Z,13.50
2022-11-07T10:00:03.492Z,13.60
2022-11-07T10:02:13.060Z,13.60
2022-11-07T10:04:27.279Z,13.70
2022-11-07T10:06:31.426Z,13.80
2022-11-07T10:08:43.979Z,13.90
2022-11-07T10:10:48.605Z,14.00
2022-11-07T10:12:53.269Z,13.90
2022-11-07T10:15:04.342Z,14.00
2022-11-07T10:17:05.987Z,14.10
2022-11-07T10:19:13.371Z,14.00
2022-11-07T10:21:37.087Z,14.20
2022-11-07T10:23:48.444Z,14.30
2022-11-07T10:26:08.175Z,14.40
2022-11-07T10:28:14.422Z,14.40
2022-11-07T10:30:17.781Z,14.40
2022-11-07T10:32:36.129Z,14.40
2022-11-07T10:34:40.894Z,14.50
2022-11-07T10:36:42.557Z,14.50
2022-11-07T10:38:44.340Z,14.50
2022-11-07T10:40:46.700Z,14.60
2022-11-07T10:42:48.795Z,14.60
2022-11-07T10:44:51.484Z,14.70
2022-11-07T10:46:54.783Z,14.70
2022-11-07T10:48:57.800Z,14.80
2022-11-07T10:50:59.519Z,14.70
2022-11-07T10:53:09.859Z,14.70
2022-11-07T10:55:15.406Z,14.60
2022-11-07T10:57:18.649Z,14.70
2022-11-07T10:59:24.853Z,14.70
2022-11-07T11:01:27.383Z,14.70
2022-11-07T11:03:43.112Z,14.70
2022-11-07T11:05:46.462Z,14.80
2022-11-07T11:07:48.317Z,14.80
2022-11-07T11:09:51.441Z,14.80
2022-11-07T11:11:53.132Z,14.90
2022-11-07T11:14:05.694Z,15.00
2022-11-07T11:16:13.550Z,15.00
2022-11-07T11:18:17.031Z,15.10
2022-11-07T11:20:39.251Z,15.10
2022-11-07T11:22:42.471Z,15.10
2022-11-07T11:24:44.273Z,15.10
2022-11-07T11:26:47.310Z,15.20
2022-11-07T11:28:52.129Z,15.20
2022-11-07T11:30:57.877Z,15.10
2022-11-07T11:32:59.498Z,15.20
2022-11-07T11:35:05.749Z,15.10
2022-11-07T11:37:18.721Z,15.10
2022-11-07T11:39:32.902Z,15.10
2022-11-07T11:42:00.616Z,15.00
2022-11-07T11:44:12.342Z,15.00
2022-11-07T11:46:23.884Z,15.00
2022-11-07T11:48:25.564Z,15.00
2022-11-07T11:50:47.482Z,15.00
2022-11-07T11:52:49.279Z,15.00
2022-11-07T11:54:51.435Z,14.90
2022-11-07T11:57:01.779Z,14.90
2022-11-07T11:59:22.480Z,14.90
2022-11-07T12:01:47.817Z,14.90
2022-11-07T12:04:07.939Z,14.90
2022-11-07T12:06:18.672Z,15.00
2022-11-07T12:08:20.591Z,15.00
2022-11-07T12:10:32.187Z,15.00
2022-11-07T12:12:51.140Z,15.00
2022-11-07T12:14:58.337Z,15.00
2022-11-07T12:17:03.207Z,15.00
2022-11-07T12:19:16.458Z,15.10
2022-11-07T12:21:29.308Z,15.10
2022-11-07T12:23:33.904Z,15.10
2022-11-07T12:25:40.460Z,15.00
2022-11-07T12:27:42.134Z,15.00
2022-11-07T12:29:49.710Z,15.10
2022-11-07T12:32:09.796Z,15.10
2022-11-07T12:34:14.380Z,15.10
2022-11-07T12:36:18.774Z,15.20
2022-11-07T12:38:20.356Z,15.20
2022-11-07T12:40:25.484Z,15.30
2022-11-07T12:42:43.705Z,15.30
2022-11-07T12:44:48.078Z,15.40
2022-11-07T12:47:00.195Z,15.30
2022-11-07T12:49:11.838Z,15.30
2022-11-07T12:51:33.728Z,15.30
2022-11-07T12:53:43.982Z,15.30
2022-11-07T12:55:45.665Z,15.40
2022-11-07T12:57:49.190Z,15.40
2022-11-07T12:59:57.377Z,15.40
2022-11-07T13:01:59.080Z,15.40
2022-11-07T13:04:00.808Z,15.40
2022-11-07T13:06:08.525Z,15.40
2022-11-07T13:08:34.600Z,15.40
2022-11-07T13:11:15.298Z,15.40
2022-11-07T13:13:26.113Z,15.40
2022-11-07T13:15:28.023Z,15.40
2022-11-07T13:17:41.216Z,15.40
2022-11-07T13:19:44.497Z,15.30
2022-11-07T13:21:46.214Z,15.30
2022-11-07T13:23:48.152Z,15.40
2022-11-07T13:25:57.116Z,15.40
2022-11-07T13:27:58.688Z,15.30
2022-11-07T13:30:15.260Z,15.30
2022-11-07T13:32:16.938Z,15.30
2022-11-07T13:34:18.553Z,15.30
2022-11-07T13:36:27.131Z,15.30
2022-11-07T13:38:29.646Z,15.30
2022-11-07T13:40:35.672Z,15.30
2022-11-07T13:42:37.629Z,15.20
2022-11-07T13:44:39.368Z,15.20
2022-11-07T13:46:49.169Z,15.20
2022-11-07T13:48:52.666Z,15.30
2022-11-07T13:51:06.139Z,15.20
2022-11-07T13:53:28.019Z,15.20
2022-11-07T13:55:33.270Z,15.20
2022-11-07T13:57:36.560Z,15.30
2022-11-07T13:59:47.822Z,15.20
2022-11-07T14:01:53.880Z,15.10
2022-11-07T14:03:55.536Z,15.10
2022-11-07T14:05:57.240Z,15.10
2022-11-07T14:08:17.052Z,15.00
2022-11-07T14:10:38.215Z,15.00
2022-11-07T14:12:40.031Z,15.00
2022-11-07T14:14:43.016Z,14.90
2022-11-07T14:16:45.535Z,15.00
2022-11-07T14:18:49.343Z,15.00
2022-11-07T14:20:55.538Z,14.90
2022-11-07T14:22:58.519Z,14.90
2022-11-07T14:25:00.204Z,14.90
2022-11-07T14:27:01.917Z,14.90
2022-11-07T14:29:03.822Z,14.80
2022-11-07T14:31:15.217Z,14.90
2022-11-07T14:33:18.218Z,14.90
2022-11-07T14:35:21.674Z,14.80
2022-11-07T14:37:25.353Z,14.90
2022-11-07T14:39:31.618Z,14.80
2022-11-07T14:41:35.765Z,14.80
2022-11-07T14:43:37.496Z,14.70
2022-11-07T14:46:10.942Z,14.70
2022-11-07T14:48:01.963Z,14.70
2022-11-07T14:50:04.239Z,14.60
2022-11-07T14:52:07.018Z,14.60
2022-11-07T14:54:16.637Z,14.60
2022-11-07T14:56:19.737Z,14.50
2022-11-07T14:58:25.269Z,14.50
2022-11-07T15:00:26.903Z,14.40
2022-11-07T15:02:32.461Z,14.40
2022-11-07T15:04:36.849Z,14.40
2022-11-07T15:06:42.729Z,14.30
2022-11-07T15:08:54.753Z,14.30
2022-11-07T15:11:04.044Z,14.20
2022-11-07T15:13:18.959Z,14.20
2022-11-07T15:15:22.266Z,14.10
2022-11-07T15:17:25.211Z,14.00
2022-11-07T15:19:26.974Z,14.00
2022-11-07T15:21:28.928Z,13.90
2022-11-07T15:23:31.989Z,13.80
2022-11-07T15:25:37.821Z,13.70
2022-11-07T15:27:40.284Z,13.70
2022-11-07T15:29:49.319Z,13.50
2022-11-07T15:31:50.929Z,13.50
2022-11-07T15:33:52.820Z,13.40
2022-11-07T15:35:55.919Z,13.30
2022-11-07T15:37:59.002Z,13.20
2022-11-07T15:40:00.711Z,13.10
2022-11-07T15:42:02.511Z,13.00
2022-11-07T15:44:04.298Z,12.90
2022-11-07T15:46:26.320Z,12.80
2022-11-07T15:48:30.553Z,12.70
2022-11-07T15:50:32.612Z,12.60
2022-11-07T15:52:34.192Z,12.40
2022-11-07T15:54:35.806Z,12.30
2022-11-07T15:56:38.689Z,12.20
2022-11-07T15:58:40.437Z,12.20
2022-11-07T16:00:42.180Z,12.00
2022-11-07T16:02:44.203Z,12.00
2022-11-07T16:04:45.959Z,11.90
2022-11-07T16:06:47.683Z,11.80
2022-11-07T16:08:49.353Z,11.70
2022-11-07T16:10:53.473Z,11.70
2022-11-07T16:12:55.121Z,11.60
2022-11-07T16:14:59.318Z,11.50
2022-11-07T16:17:01.212Z,11.40
2022-11-07T16:19:02.855Z,11.30
2022-11-07T16:21:04.590Z,11.20
2022-11-07T16:23:06.234Z,11.20
2022-11-07T16:25:14.988Z,11.10
2022-11-07T16:27:21.915Z,11.00
2022-11-07T16:29:23.710Z,10.90
2022-11-07T16:31:25.358Z,10.80
2022-11-07T16:33:27.721Z,10.80
2022-11-07T16:35:29.509Z,10.70
2022-11-07T16:37:31.102Z,10.70
2022-11-07T16:39:32.845Z,10.60
2022-11-07T16:41:34.853Z,10.60
2022-11-07T16:43:38.030Z,10.50
2022-11-07T16:45:43.887Z,10.50
2022-11-07T16:47:45.498Z,10.40
2022-11-07T16:49:49.081Z,10.40
2022-11-07T16:51:52.610Z,10.30
2022-11-07T16:53:54.236Z,10.20
2022-11-07T16:55:59.569Z,10.20
2022-11-07T16:58:01.215Z,10.20
2022-11-07T17:00:04.541Z,10.10
2022-11-07T17:02:21.659Z,10.00
2022-11-07T17:04:23.703Z,10.00
2022-11-07T17:06:30.604Z,10.00
2022-11-07T17:08:36.979Z,9.90
2022-11-07T17:10:38.707Z,9.90
2022-11-07T17:12:40.376Z,9.90
2022-11-07T17:14:42.061Z,9.80
2022-11-07T17:16:45.777Z,9.80
2022-11-07T17:18:48.963Z,9.70
2022-11-07T17:20:52.155Z,9.70
2022-11-07T17:22:54.010Z,9.60
2022-11-07T17:24:55.766Z,9.70
2022-11-07T17:27:00.268Z,9.60
2022-11-07T17:29:02.297Z,9.60
2022-11-07T17:31:03.953Z,9.60
2022-11-07T17:33:05.557Z,9.50
2022-11-07T17:37:29.156Z,9.50
2022-11-07T17:39:30.813Z,9.50
2022-11-07T17:41:32.410Z,9.50
2022-11-07T17:43:34.036Z,9.50
2022-11-07T17:45:36.578Z,9.50
2022-11-07T17:47:38.255Z,9.50
2022-11-07T17:49:39.880Z,9.40
2022-11-07T17:51:42.121Z,9.50
2022-11-07T17:53:43.844Z,9.40
2022-11-07T17:55:45.550Z,9.40
2022-11-07T17:57:47.349Z,9.40
2022-11-07T17:59:49.484Z,9.40
2022-11-07T18:01:51.355Z,9.40
2022-11-07T18:03:53.604Z,9.30
2022-11-07T18:05:55.228Z,9.30
2022-11-07T18:07:56.873Z,9.30
2022-11-07T18:09:58.498Z,9.30
2022-11-07T18:12:00.092Z,9.20
2022-11-07T18:14:02.245Z,9.20
2022-11-07T18:16:11.260Z,9.20
2022-11-07T18:18:12.897Z,9.20
2022-11-07T18:20:14.519Z,9.20
2022-11-07T18:22:16.580Z,9.20
2022-11-07T18:24:18.370Z,9.20
2022-11-07T18:26:22.668Z,9.20
2022-11-07T18:28:24.283Z,9.20
2022-11-07T18:30:26.030Z,9.10
2022-11-07T18:32:31.517Z,9.20
2022-11-07T18:34:37.385Z,9.20
2022-11-07T18:36:40.189Z,9.10
2022-11-07T18:38:41.865Z,9.10
2022-11-07T18:40:43.518Z,9.10
2022-11-07T18:42:45.671Z,9.10
2022-11-07T18:44:47.329Z,9.00
2022-11-07T18:46:48.935Z,9.00
2022-11-07T18:48:50.880Z,9.00
2022-11-07T18:50:52.592Z,9.00
2022-11-07T18:52:54.214Z,8.90
2022-11-07T18:54:55.885Z,8.90
2022-11-07T18:56:57.561Z,8.90
2022-11-07T18:58:59.256Z,8.90
2022-11-07T19:01:03.764Z,8.90
2022-11-07T19:03:05.461Z,8.80
2022-11-07T19:05:07.373Z,8.90
2022-11-07T19:07:08.959Z,8.80
2022-11-07T19:09:10.595Z,8.70
2022-11-07T19:11:13.401Z,8.70
2022-11-07T19:13:14.989Z,8.70
2022-11-07T19:15:16.743Z,8.60
2022-11-07T19:17:18.491Z,8.60
2022-11-07T19:19:20.117Z,8.60
2022-11-07T19:21:23.288Z,8.60
2022-11-07T19:23:24.953Z,8.50
2022-11-07T19:25:26.582Z,8.50
2022-11-07T19:27:29.656Z,8.50
2022-11-07T19:29:31.456Z,8.50
2022-11-07T19:31:34.889Z,8.50
2022-11-07T19:33:36.981Z,8.50
2022-11-07T19:35:39.530Z,8.50
2022-11-07T19:37:41.205Z,8.50
2022-11-07T19:39:42.879Z,8.50
2022-11-07T19:41:44.501Z,8.50
2022-11-07T19:43:49.891Z,8.50
2022-11-07T19:45:51.753Z,8.40
2022-11-07T19:47:53.961Z,8.40
2022-11-07T19:49:55.760Z,8.40
2022-11-07T19:51:57.380Z,8.40
2022-11-07T19:53:59.653Z,8.30
2022-11-07T19:56:05.234Z,8.30
2022-11-07T19:58:06.879Z,8.30
2022-11-07T20:00:10.036Z,8.30
2022-11-07T20:02:31.552Z,8.30
2022-11-07T20:04:33.753Z,8.20
2022-11-07T20:06:36.766Z,8.20
2022-11-07T20:08:38.759Z,8.20
2022-11-07T20:10:45.050Z,8.20
2022-11-07T20:12:46.640Z,8.20
2022-11-07T20:14:48.280Z,8.10
2022-11-07T20:16:49.874Z,8.10
2022-11-07T20:18:51.482Z,8.10
2022-11-07T20:20:59.783Z,8.00
2022-11-07T20:23:01.398Z,8.00
2022-11-07T20:25:03.815Z,7.90
2022-11-07T20:27:05.445Z,7.90
2022-11-07T20:29:07.278Z,7.90
2022-11-07T20:31:10.048Z,8.00
2022-11-07T20:33:11.670Z,7.90
2022-11-07T20:35:13.331Z,7.90
2022-11-07T20:37:20.723Z,7.80
2022-11-07T20:39:22.349Z,7.80
2022-11-07T20:41:24.722Z,7.80
2022-11-07T20:43:26.368Z,7.80
2022-11-07T20:45:27.979Z,7.80
2022-11-07T20:47:29.666Z,7.70
2022-11-07T20:49:31.272Z,7.70
2022-11-07T20:51:33.401Z,7.70
2022-11-07T20:53:36.115Z,7.70
2022-11-07T20:55:38.842Z,7.70
2022-11-07T20:57:40.489Z,7.60
2022-11-07T20:59:42.366Z,7.60
2022-11-07T21:01:44.150Z,7.60
2022-11-07T21:03:46.260Z,7.60
2022-11-07T21:05:51.245Z,7.60
2022-11-07T21:07:52.837Z,7.60
2022-11-07T21:09:54.570Z,7.50
2022-11-07T21:11:56.291Z,7.50
2022-11-07T21:13:58.013Z,7.50
2022-11-07T21:15:59.708Z,7.50
2022-11-07T21:18:03.652Z,7.50
2022-11-07T21:20:05.823Z,7.40
2022-11-07T21:22:07.486Z,7.40
2022-11-07T21:24:09.394Z,7.40
2022-11-07T21:26:13.685Z,7.40
2022-11-07T21:28:17.064Z,7.40
2022-11-07T21:30:18.811Z,7.30
2022-11-07T21:32:20.470Z,7.30
2022-11-07T21:34:22.060Z,7.30
2022-11-07T21:36:25.214Z,7.30
2022-11-07T21:38:26.900Z,7.20
2022-11-07T21:40:28.534Z,7.20
2022-11-07T21:42:30.116Z,7.20
2022-11-07T21:44:31.772Z,7.20
2022-11-07T21:46:36.434Z,7.10
2022-11-07T21:48:38.246Z,7.10
2022-11-07T21:50:44.711Z,7.10
2022-11-07T21:52:46.983Z,7.10
2022-11-07T21:54:49.683Z,7.00
2022-11-07T21:56:51.305Z,7.00
2022-11-07T21:58:54.603Z,7.00
2022-11-07T22:01:00.425Z,7.00
2022-11-07T22:03:02.083Z,7.00
2022-11-07T22:05:04.019Z,6.90
2022-11-07T22:07:05.651Z,6.90
2022-11-07T22:09:08.204Z,6.90
2022-11-07T22:11:09.815Z,6.90
2022-11-07T22:13:11.535Z,6.90
2022-11-07T22:15:13.296Z,6.90
2022-11-07T22:17:14.969Z,6.80
2022-11-07T22:19:17.485Z,6.80
2022-11-07T22:21:20.843Z,6.80
2022-11-07T22:23:22.463Z,6.70
2022-11-07T22:25:24.092Z,6.70
2022-11-07T22:27:25.713Z,6.60
2022-11-07T22:29:27.353Z,6.60
2022-11-07T22:31:30.433Z,6.70
2022-11-07T22:33:32.156Z,6.60
2022-11-07T22:35:33.831Z,6.60
2022-11-07T22:37:35.430Z,6.60
2022-11-07T22:39:37.038Z,6.50
2022-11-07T22:41:38.882Z,6.50
2022-11-07T22:43:40.817Z,6.50
2022-11-07T22:45:42.511Z,6.50
2022-11-07T22:47:44.102Z,6.40
2022-11-07T22:49:45.752Z,6.40
2022-11-07T22:51:47.376Z,6.40
2022-11-07T22:53:54.971Z,6.40
2022-11-07T22:55:56.742Z,6.40
2022-11-07T22:57:58.447Z,6.30
2022-11-07T23:00:06.811Z,6.30
2022-11-07T23:02:23.291Z,6.30
2022-11-07T23:04:30.015Z,6.30
2022-11-07T23:06:34.534Z,6.30
2022-11-07T23:08:36.582Z,6.30
2022-11-07T23:10:38.271Z,6.30
2022-11-07T23:12:39.855Z,6.20
2022-11-07T23:14:41.443Z,6.20
2022-11-07T23:16:44.246Z,6.20
2022-11-07T23:18:45.887Z,6.30
2022-11-07T23:21:06.166Z,6.20
2022-11-07T23:23:07.762Z,6.20
2022-11-07T23:25:09.475Z,6.20
2022-11-07T23:27:11.070Z,6.20
2022-11-07T23:29:14.045Z,6.20
2022-11-07T23:31:16.435Z,6.20
2022-11-07T23:33:18.108Z,6.20
2022-11-07T23:35:19.717Z,6.10
2022-11-07T23:37:21.299Z,6.10
2022-11-07T23:39:22.949Z,6.10
2022-11-07T23:41:24.902Z,6.10
2022-11-07T23:43:26.507Z,6.10
2022-11-07T23:45:46.878Z,6.10
2022-11-07T23:48:06.871Z,6.10
2022-11-07T23:50:27.434Z,6.10
2022-11-07T23:52:29.027Z,6.10
2022-11-07T23:54:49.188Z,6.10
2022-11-07T23:56:50.830Z,6.10
2022-11-07T23:59:11.521Z,6.20
